createdAt,value
2019-05-02T00:01:58.230Z,59.39
2019-05-02T00:04:29.912Z,59.29
2019-05-02T00:07:05.624Z,60.52
2019-05-02T00:09:47.784Z,59.72
2019-05-02T00:12:15.816Z,60.80
2019-05-02T00:14:47.153Z,60.66
2019-05-02T00:17:20.252Z,60.85
2019-05-02T00:19:52.642Z,60.65
2019-05-02T00:22:23.695Z,60.42
2019-05-02T00:24:54.752Z,60.78
2019-05-02T00:27:25.919Z,60.38
2019-05-02T00:29:58.667Z,59.93
2019-05-02T00:32:29.714Z,60.03
2019-05-02T00:35:00.686Z,60.75
2019-05-02T00:37:31.657Z,60.61
2019-05-02T00:40:02.840Z,60.69
2019-05-02T00:42:33.927Z,61.11
2019-05-02T00:45:06.180Z,61.63
2019-05-02T00:47:47.906Z,61.32
2019-05-02T00:50:19.240Z,61.05
2019-05-02T00:52:50.460Z,60.92
2019-05-02T00:55:21.617Z,60.58
2019-05-02T00:57:55.735Z,60.95
2019-05-02T01:00:25.407Z,60.33
2019-05-02T01:03:00.724Z,60.77
2019-05-02T01:05:33.729Z,60.96
2019-05-02T01:08:05.318Z,60.51
2019-05-02T01:10:36.387Z,60.66
2019-05-02T01:13:07.523Z,60.86
2019-05-02T01:15:39.035Z,60.47
2019-05-02T01:18:11.163Z,61.28
2019-05-02T01:20:42.150Z,61.01
2019-05-02T01:23:13.217Z,60.35
2019-05-02T01:25:47.363Z,60.47
2019-05-02T01:28:35.842Z,61.03
2019-05-02T01:31:18.448Z,60.89
2019-05-02T01:34:00.836Z,61.08
2019-05-02T01:36:41.010Z,61.89
2019-05-02T01:39:11.553Z,61.79
2019-05-02T01:41:42.519Z,61.81
2019-05-02T01:44:13.510Z,61.32
2019-05-02T01:46:44.465Z,61.34
2019-05-02T01:49:16.928Z,60.62
2019-05-02T01:51:49.368Z,60.25
2019-05-02T01:54:20.354Z,60.13
2019-05-02T01:56:51.309Z,60.78
2019-05-02T01:59:23.327Z,60.88
2019-05-02T02:01:57.926Z,61.38
2019-05-02T02:04:27.049Z,60.84
2019-05-02T02:06:58.099Z,61.25
2019-05-02T02:09:29.217Z,60.87
2019-05-02T02:12:05.027Z,60.97
2019-05-02T02:14:33.378Z,60.49
2019-05-02T02:17:04.413Z,61.86
2019-05-02T02:19:53.644Z,60.85
2019-05-02T02:22:38.606Z,60.57
2019-05-02T02:25:25.201Z,61.19
2019-05-02T02:27:59.601Z,61.52
2019-05-02T02:30:28.994Z,61.21
2019-05-02T02:33:07.710Z,61.36
2019-05-02T02:35:34.052Z,61.73
2019-05-02T02:38:05.295Z,61.90
2019-05-02T02:40:36.261Z,61.62
2019-05-02T02:43:22.458Z,61.27
2019-05-02T02:45:51.921Z,61.13
2019-05-02T02:48:22.495Z,62.29
2019-05-02T02:50:53.527Z,61.60
2019-05-02T02:53:33.710Z,61.83
2019-05-02T02:56:07.324Z,61.64
2019-05-02T02:58:45.223Z,62.09
2019-05-02T03:01:11.339Z,61.56
2019-05-02T03:03:42.605Z,61.82
2019-05-02T03:06:13.578Z,61.59
2019-05-02T03:08:48.659Z,61.62
2019-05-02T03:11:23.523Z,62.29
2019-05-02T03:14:09.579Z,62.45
2019-05-02T03:16:47.472Z,62.15
2019-05-02T03:19:14.727Z,61.87
2019-05-02T03:22:04.561Z,62.29
2019-05-02T03:24:36.419Z,61.64
2019-05-02T03:27:08.494Z,62.20
2019-05-02T03:29:43.859Z,62.37
2019-05-02T03:32:16.951Z,62.20
2019-05-02T03:34:48.438Z,62.08
2019-05-02T03:37:17.968Z,62.13
2019-05-02T03:39:56.549Z,61.66
2019-05-02T03:42:21.831Z,62.41
2019-05-02T03:44:56.345Z,62.01
2019-05-02T03:47:26.721Z,62.27
2019-05-02T03:49:58.346Z,61.96
2019-05-02T03:52:29.533Z,62.00
2019-05-02T03:55:00.637Z,62.30
2019-05-02T03:57:35.707Z,63.78
2019-05-02T04:00:06.114Z,63.66
2019-05-02T04:02:38.121Z,62.92
2019-05-02T04:05:09.532Z,62.11
2019-05-02T04:07:42.324Z,62.02
2019-05-02T04:10:20.227Z,61.82
2019-05-02T04:12:53.059Z,61.17
2019-05-02T04:15:28.828Z,61.16
2019-05-02T04:17:57.304Z,61.20
2019-05-02T04:20:28.658Z,61.12
2019-05-02T04:23:01.632Z,62.10
2019-05-02T04:25:35.438Z,61.02
2019-05-02T04:28:12.078Z,61.45
2019-05-02T04:30:45.089Z,61.62
2019-05-02T04:33:13.057Z,61.26
2019-05-02T04:35:44.308Z,61.30
2019-05-02T04:38:21.451Z,60.78
2019-05-02T04:40:49.508Z,60.46
2019-05-02T04:43:20.921Z,60.65
2019-05-02T04:45:56.404Z,60.16
2019-05-02T04:48:24.630Z,59.92
2019-05-02T04:51:01.980Z,60.32
2019-05-02T04:55:08.366Z,59.88
2019-05-02T04:57:36.607Z,60.00
2019-05-02T05:00:08.598Z,60.51
2019-05-02T05:02:39.343Z,60.02
2019-05-02T05:05:08.361Z,60.00
2019-05-02T05:07:45.822Z,59.03
2019-05-02T05:10:13.149Z,58.72
2019-05-02T05:12:44.123Z,58.92
2019-05-02T05:15:33.844Z,58.95
2019-05-02T05:17:49.974Z,58.52
2019-05-02T05:20:20.647Z,58.34
2019-05-02T05:22:51.697Z,58.02
2019-05-02T05:25:28.620Z,57.46
2019-05-02T05:28:05.658Z,57.33
2019-05-02T05:30:32.338Z,58.62
2019-05-02T05:33:03.382Z,58.22
2019-05-02T05:35:34.398Z,57.85
2019-05-02T05:38:07.622Z,57.53
2019-05-02T05:40:38.228Z,57.45
2019-05-02T05:43:14.424Z,57.04
2019-05-02T05:45:53.591Z,56.84
2019-05-02T05:48:14.702Z,56.93
2019-05-02T05:50:47.651Z,55.96
2019-05-02T05:53:21.353Z,55.58
2019-05-02T05:55:53.672Z,55.97
2019-05-02T05:58:23.885Z,56.80
2019-05-02T06:00:56.518Z,56.73
2019-05-02T06:03:27.847Z,55.77
2019-05-02T06:05:59.026Z,55.37
2019-05-02T06:08:30.079Z,54.99
2019-05-02T06:11:01.130Z,54.59
2019-05-02T06:13:32.099Z,54.47
2019-05-02T06:16:03.611Z,53.72
2019-05-02T06:18:36.429Z,53.58
2019-05-02T06:21:08.795Z,53.22
2019-05-02T06:23:41.521Z,53.61
2019-05-02T06:26:13.545Z,52.70
2019-05-02T06:28:45.320Z,53.90
2019-05-02T06:31:17.241Z,54.17
2019-05-02T06:33:49.251Z,52.98
2019-05-02T06:36:20.423Z,52.54
2019-05-02T06:38:52.329Z,51.00
2019-05-02T06:41:24.278Z,49.66
2019-05-02T06:43:56.318Z,48.09
2019-05-02T06:46:29.538Z,48.26
2019-05-02T06:49:00.091Z,46.92
2019-05-02T06:51:31.080Z,46.32
2019-05-02T06:54:02.052Z,46.90
2019-05-02T06:56:34.100Z,47.07
2019-05-02T06:59:05.275Z,48.06
2019-05-02T07:01:37.599Z,46.41
2019-05-02T07:04:08.751Z,45.51
2019-05-02T07:06:56.303Z,43.33
2019-05-02T07:09:12.803Z,41.57
2019-05-02T07:11:56.646Z,40.28
2019-05-02T07:14:18.594Z,39.29
2019-05-02T07:17:14.759Z,37.71
2019-05-02T07:19:48.313Z,35.96
2019-05-02T07:22:19.286Z,36.05
2019-05-02T07:24:50.418Z,31.97
2019-05-02T07:27:21.465Z,31.58
2019-05-02T07:29:57.685Z,30.74
2019-05-02T07:32:26.781Z,30.55
2019-05-02T07:34:57.752Z,29.21
2019-05-02T07:37:28.825Z,28.65
2019-05-02T07:39:59.788Z,28.95
2019-05-02T07:42:30.764Z,29.64
2019-05-02T07:45:04.301Z,29.14
2019-05-02T07:47:40.185Z,29.88
2019-05-02T07:50:10.276Z,29.21
2019-05-02T07:52:41.344Z,28.75
2019-05-02T07:55:13.353Z,28.99
2019-05-02T07:57:44.340Z,27.17
2019-05-02T08:00:16.839Z,28.65
2019-05-02T08:02:47.910Z,28.17
2019-05-02T08:05:21.643Z,30.65
2019-05-02T08:07:53.278Z,32.64
2019-05-02T08:10:24.998Z,33.24
2019-05-02T08:12:56.047Z,30.82
2019-05-02T08:15:28.066Z,30.08
2019-05-02T08:17:59.061Z,32.93
2019-05-02T08:20:30.053Z,32.55
2019-05-02T08:23:01.072Z,32.44
2019-05-02T08:25:32.139Z,33.39
2019-05-02T08:28:17.918Z,34.51
2019-05-02T08:30:53.049Z,33.44
2019-05-02T08:33:24.038Z,33.17
2019-05-02T08:35:55.192Z,34.03
2019-05-02T08:38:26.195Z,34.97
2019-05-02T08:40:57.195Z,34.53
2019-05-02T08:43:28.345Z,35.11
2019-05-02T08:45:59.358Z,35.75
2019-05-02T08:48:30.347Z,34.89
2019-05-02T08:51:01.422Z,37.14
2019-05-02T08:53:32.618Z,35.17
2019-05-02T08:56:03.687Z,38.19
2019-05-02T08:58:34.664Z,36.15
2019-05-02T09:01:09.252Z,36.21
2019-05-02T09:03:54.716Z,36.14
2019-05-02T09:06:11.334Z,36.44
2019-05-02T09:08:46.139Z,36.67
2019-05-02T09:11:15.865Z,36.25
2019-05-02T09:13:46.943Z,35.70
2019-05-02T09:16:23.644Z,35.53
2019-05-02T09:18:53.931Z,35.50
2019-05-02T09:21:26.823Z,34.41
2019-05-02T09:23:56.146Z,34.85
2019-05-02T09:26:37.795Z,34.43
2019-05-02T09:29:01.708Z,34.96
2019-05-02T09:31:36.675Z,35.32
2019-05-02T09:34:05.575Z,35.94
2019-05-02T09:36:38.185Z,33.04
2019-05-02T09:39:11.760Z,35.14
2019-05-02T09:41:42.150Z,33.38
2019-05-02T09:44:18.595Z,35.11
2019-05-02T09:46:47.387Z,34.37
2019-05-02T09:49:21.900Z,33.70
2019-05-02T09:51:59.147Z,34.48
2019-05-02T09:54:25.158Z,34.50
2019-05-02T09:56:56.189Z,33.78
2019-05-02T09:59:33.549Z,35.76
2019-05-02T10:02:08.024Z,33.78
2019-05-02T10:04:42.120Z,33.72
2019-05-02T10:07:15.195Z,33.87
2019-05-02T10:09:45.493Z,34.80
2019-05-02T10:12:16.500Z,34.09
2019-05-02T10:14:47.490Z,32.85
2019-05-02T10:17:18.648Z,33.78
2019-05-02T10:19:54.953Z,34.01
2019-05-02T10:22:23.809Z,35.88
2019-05-02T10:24:55.280Z,33.45
2019-05-02T10:27:26.447Z,33.75
2019-05-02T10:30:08.113Z,33.56
2019-05-02T10:32:32.437Z,33.99
2019-05-02T10:35:03.587Z,33.41
2019-05-02T10:37:38.243Z,35.36
2019-05-02T10:40:12.718Z,33.14
2019-05-02T10:42:41.955Z,32.92
2019-05-02T10:45:16.704Z,33.10
2019-05-02T10:47:47.476Z,32.84
2019-05-02T10:50:23.215Z,33.68
2019-05-02T10:52:54.296Z,31.99
2019-05-02T10:55:25.528Z,32.80
2019-05-02T10:57:56.484Z,33.09
2019-05-02T11:00:33.977Z,33.59
2019-05-02T11:03:12.122Z,32.37
2019-05-02T11:05:45.708Z,33.52
2019-05-02T11:08:16.732Z,32.99
2019-05-02T11:10:47.785Z,33.77
2019-05-02T11:13:28.972Z,34.16
2019-05-02T11:16:18.955Z,33.91
2019-05-02T11:19:13.113Z,32.82
2019-05-02T11:21:55.520Z,32.25
2019-05-02T11:24:17.094Z,32.36
2019-05-02T11:26:48.180Z,32.84
2019-05-02T11:29:19.178Z,31.71
2019-05-02T11:31:52.018Z,33.87
2019-05-02T11:34:22.924Z,33.09
2019-05-02T11:36:53.914Z,33.85
2019-05-02T11:39:33.285Z,33.75
2019-05-02T11:41:57.739Z,32.38
2019-05-02T11:44:28.861Z,33.52
2019-05-02T11:47:01.818Z,31.71
2019-05-02T11:49:32.602Z,31.15
2019-05-02T11:52:04.661Z,30.26
2019-05-02T11:54:39.264Z,30.15
2019-05-02T11:57:08.443Z,29.19
2019-05-02T11:59:39.450Z,27.80
2019-05-02T12:02:28.440Z,28.85
2019-05-02T12:04:59.482Z,29.03
2019-05-02T12:07:32.343Z,27.71
2019-05-02T12:10:04.723Z,28.08
2019-05-02T12:12:36.359Z,29.39
2019-05-02T12:15:09.525Z,27.66
2019-05-02T12:17:41.975Z,27.24
2019-05-02T12:20:13.269Z,28.07
2019-05-02T12:22:44.395Z,27.10
2019-05-02T12:25:15.495Z,26.74
2019-05-02T12:27:47.738Z,28.09
2019-05-02T12:30:19.097Z,28.55
2019-05-02T12:32:53.128Z,29.11
2019-05-02T12:35:24.419Z,28.01
2019-05-02T12:37:55.435Z,27.74
2019-05-02T12:40:26.765Z,28.41
2019-05-02T12:42:57.739Z,27.66
2019-05-02T12:45:28.919Z,28.26
2019-05-02T12:48:02.402Z,27.67
2019-05-02T12:50:33.118Z,28.68
2019-05-02T12:53:04.189Z,27.11
2019-05-02T12:58:21.857Z,27.12
2019-05-02T13:00:53.272Z,28.15
2019-05-02T13:03:44.397Z,27.72
2019-05-02T13:06:15.561Z,27.06
2019-05-02T13:08:49.084Z,26.85
2019-05-02T13:11:49.198Z,26.76
2019-05-02T13:14:24.093Z,27.56
2019-05-02T13:17:01.194Z,27.40
2019-05-02T13:19:38.001Z,27.24
2019-05-02T13:22:29.158Z,27.04
2019-05-02T13:25:10.497Z,28.07
2019-05-02T13:27:47.516Z,26.33
2019-05-02T13:30:46.786Z,25.82
2019-05-02T13:33:34.375Z,25.92
2019-05-02T13:36:02.504Z,26.69
2019-05-02T13:38:33.777Z,26.86
2019-05-02T13:41:05.123Z,27.09
2019-05-02T13:43:43.589Z,27.77
2019-05-02T13:46:19.084Z,28.08
2019-05-02T13:48:50.085Z,27.69
2019-05-02T13:51:22.341Z,27.93
2019-05-02T13:54:02.243Z,28.69
2019-05-02T13:56:52.355Z,27.76
2019-05-02T13:59:23.184Z,28.04
2019-05-02T14:01:55.184Z,26.23
2019-05-02T14:04:26.314Z,28.09
2019-05-02T14:06:57.431Z,26.36
2019-05-02T14:09:50.910Z,26.38
2019-05-02T14:12:53.272Z,27.09
2019-05-02T14:15:27.126Z,26.46
2019-05-02T14:17:58.305Z,24.84
2019-05-02T14:20:29.429Z,24.62
2019-05-02T14:23:02.195Z,25.14
2019-05-02T14:25:33.179Z,25.42
2019-05-02T14:28:04.175Z,25.51
2019-05-02T14:30:39.506Z,25.23
2019-05-02T14:33:13.965Z,25.51
2019-05-02T14:35:45.147Z,26.54
2019-05-02T14:38:16.963Z,24.65
2019-05-02T14:41:19.306Z,25.89
2019-05-02T14:43:54.243Z,24.98
2019-05-02T14:46:37.415Z,23.85
2019-05-02T14:48:59.727Z,24.85
2019-05-02T14:51:33.092Z,25.67
2019-05-02T14:54:08.113Z,26.34
2019-05-02T14:57:02.098Z,25.34
2019-05-02T14:59:33.227Z,25.37
2019-05-02T15:02:07.871Z,25.69
2019-05-02T15:04:44.609Z,25.05
2019-05-02T15:07:12.953Z,25.48
2019-05-02T15:09:44.375Z,25.43
2019-05-02T15:12:18.844Z,27.34
2019-05-02T15:14:49.270Z,28.99
2019-05-02T15:17:22.667Z,28.17
2019-05-02T15:19:53.632Z,26.74
2019-05-02T15:22:27.609Z,26.32
2019-05-02T15:24:57.473Z,26.74
2019-05-02T15:27:39.346Z,27.31
2019-05-02T15:30:06.896Z,27.70
2019-05-02T15:32:44.899Z,26.72
2019-05-02T15:35:35.895Z,27.63
2019-05-02T15:38:06.973Z,28.77
2019-05-02T15:40:47.170Z,29.47
2019-05-02T15:43:12.608Z,27.91
2019-05-02T15:45:45.436Z,27.67
2019-05-02T15:48:22.499Z,28.74
2019-05-02T15:50:52.970Z,28.11
2019-05-02T15:53:32.552Z,28.62
2019-05-02T15:56:03.883Z,29.03
2019-05-02T15:58:35.013Z,29.62
2019-05-02T16:01:17.193Z,29.19
2019-05-02T16:03:50.050Z,29.16
2019-05-02T16:06:25.850Z,29.68
2019-05-02T16:08:53.933Z,30.28
2019-05-02T16:11:25.234Z,31.41
2019-05-02T16:13:56.384Z,32.21
2019-05-02T16:16:27.503Z,31.79
2019-05-02T16:18:58.657Z,31.73
2019-05-02T16:22:06.273Z,32.58
2019-05-02T16:24:33.848Z,34.85
2019-05-02T16:27:04.972Z,35.00
2019-05-02T16:29:36.052Z,34.58
2019-05-02T16:32:30.841Z,33.00
2019-05-02T16:35:12.162Z,33.22
2019-05-02T16:37:37.953Z,32.42
2019-05-02T16:40:12.043Z,32.66
2019-05-02T16:42:43.140Z,32.26
2019-05-02T16:45:15.208Z,31.53
2019-05-02T16:47:49.749Z,31.39
2019-05-02T16:50:19.937Z,33.76
2019-05-02T16:52:53.042Z,33.48
2019-05-02T16:55:26.704Z,34.49
2019-05-02T16:58:02.968Z,34.52
2019-05-02T17:00:32.023Z,35.85
2019-05-02T17:03:03.848Z,36.54
2019-05-02T17:05:39.492Z,35.22
2019-05-02T17:08:22.536Z,34.95
2019-05-02T17:11:01.859Z,35.40
2019-05-02T17:13:35.644Z,34.36
2019-05-02T17:16:13.178Z,36.55
2019-05-02T17:18:38.511Z,35.72
2019-05-02T17:21:09.500Z,36.26
2019-05-02T17:23:42.952Z,37.47
2019-05-02T17:26:13.222Z,36.95
2019-05-02T17:28:47.127Z,38.21
2019-05-02T17:31:20.556Z,38.30
2019-05-02T17:33:50.943Z,39.77
2019-05-02T17:36:28.708Z,40.24
2019-05-02T17:38:59.400Z,40.61
2019-05-02T17:41:28.178Z,41.23
2019-05-02T17:43:59.228Z,41.69
2019-05-02T17:46:30.166Z,41.04
2019-05-02T17:49:02.544Z,41.92
2019-05-02T17:52:05.309Z,42.22
2019-05-02T17:54:29.482Z,43.26
2019-05-02T17:57:02.159Z,45.58
2019-05-02T17:59:37.487Z,46.86
2019-05-02T18:02:11.531Z,49.14
2019-05-02T18:04:39.424Z,51.37
2019-05-02T18:07:11.681Z,53.68
2019-05-02T18:09:42.927Z,55.16
2019-05-02T18:12:16.237Z,55.99
2019-05-02T18:14:46.716Z,57.38
2019-05-02T18:17:17.826Z,57.91
2019-05-02T18:19:48.817Z,59.04
2019-05-02T18:22:24.155Z,58.60
2019-05-02T18:24:52.796Z,57.65
2019-05-02T18:27:24.087Z,58.07
2019-05-02T18:29:55.141Z,58.31
2019-05-02T18:32:26.318Z,58.02
2019-05-02T18:35:02.494Z,58.69
2019-05-02T18:37:32.486Z,58.43
2019-05-02T18:40:03.475Z,59.46
2019-05-02T18:42:34.532Z,59.40
2019-05-02T18:45:09.200Z,59.82
2019-05-02T18:47:41.795Z,59.42
2019-05-02T18:50:36.847Z,59.40
2019-05-02T18:53:08.296Z,58.99
2019-05-02T18:55:39.817Z,59.12
2019-05-02T18:58:12.858Z,57.40
2019-05-02T19:00:44.206Z,56.39
2019-05-02T19:03:17.230Z,54.71
2019-05-02T19:05:51.519Z,55.45
2019-05-02T19:08:30.535Z,54.81
2019-05-02T19:11:04.978Z,56.27
2019-05-02T19:13:29.992Z,55.19
2019-05-02T19:16:02.035Z,55.85
2019-05-02T19:18:33.220Z,56.40
2019-05-02T19:21:05.562Z,55.33
2019-05-02T19:23:37.444Z,54.61
2019-05-02T19:26:12.495Z,54.84
2019-05-02T19:28:56.535Z,55.34
2019-05-02T19:31:36.643Z,57.10
2019-05-02T19:34:05.416Z,57.94
2019-05-02T19:36:36.563Z,58.02
2019-05-02T19:39:09.890Z,57.24
2019-05-02T19:41:44.355Z,57.14
2019-05-02T19:44:15.367Z,57.75
2019-05-02T19:46:46.802Z,58.33
2019-05-02T19:49:17.997Z,58.21
2019-05-02T19:51:50.344Z,58.12
2019-05-02T19:54:22.037Z,58.57
2019-05-02T19:56:53.134Z,57.80
2019-05-02T19:59:26.395Z,57.95
2019-05-02T20:02:02.489Z,58.25
2019-05-02T20:04:32.605Z,58.31
2019-05-02T20:07:03.253Z,58.52
2019-05-02T20:09:38.090Z,58.39
2019-05-02T20:12:09.619Z,59.06
2019-05-02T20:14:45.773Z,57.59
2019-05-02T20:17:20.326Z,57.22
2019-05-02T20:19:52.878Z,57.08
2019-05-02T20:22:24.106Z,58.73
2019-05-02T20:25:01.146Z,58.02
2019-05-02T20:27:33.038Z,58.12
2019-05-02T20:30:04.963Z,58.51
2019-05-02T20:32:36.486Z,60.18
2019-05-02T20:35:08.505Z,60.17
2019-05-02T20:37:39.564Z,61.14
2019-05-02T20:40:26.759Z,61.97
2019-05-02T20:42:57.908Z,66.15
2019-05-02T20:45:29.254Z,71.36
2019-05-02T20:48:02.064Z,72.19
2019-05-02T20:50:33.096Z,74.11
2019-05-02T20:53:05.545Z,77.51
2019-05-02T20:55:37.908Z,78.01
2019-05-02T20:58:09.060Z,77.93
2019-05-02T21:00:42.582Z,77.95
2019-05-02T21:03:14.447Z,78.03
2019-05-02T21:06:02.219Z,81.84
2019-05-02T21:08:46.545Z,80.40
2019-05-02T21:11:17.614Z,79.64
2019-05-02T21:13:48.589Z,79.21
2019-05-02T21:16:21.710Z,78.83
2019-05-02T21:18:52.352Z,79.28
2019-05-02T21:21:24.783Z,79.92
2019-05-02T21:23:55.763Z,79.89
2019-05-02T21:26:27.745Z,81.08
2019-05-02T21:28:58.793Z,78.78
2019-05-02T21:31:31.794Z,81.11
2019-05-02T21:34:02.697Z,79.07
2019-05-02T21:36:33.671Z,79.24
2019-05-02T21:39:07.577Z,78.58
2019-05-02T21:41:38.705Z,79.19
2019-05-02T21:44:09.685Z,79.11
2019-05-02T21:46:42.331Z,78.67
2019-05-02T21:49:16.033Z,81.36
2019-05-02T21:52:05.986Z,80.34
2019-05-02T21:54:44.196Z,81.89
2019-05-02T21:57:17.688Z,82.60
2019-05-02T21:59:48.705Z,81.62
2019-05-02T22:02:22.585Z,81.81
2019-05-02T22:04:53.764Z,81.97
2019-05-02T22:07:24.855Z,83.05
2019-05-02T22:09:55.834Z,82.33
2019-05-02T22:12:27.066Z,81.41
2019-05-02T22:14:58.029Z,81.34
2019-05-02T22:17:29.078Z,81.26
2019-05-02T22:20:01.845Z,81.94
2019-05-02T22:22:34.405Z,81.10
2019-05-02T22:25:06.514Z,81.32
2019-05-02T22:27:37.538Z,82.53
2019-05-02T22:30:09.183Z,81.46
2019-05-02T22:32:40.212Z,82.17
2019-05-02T22:35:12.216Z,81.99
2019-05-02T22:37:46.150Z,82.47
2019-05-02T22:40:17.819Z,81.32
2019-05-02T22:42:48.829Z,81.27
2019-05-02T22:45:21.675Z,81.50
2019-05-02T22:47:52.757Z,82.01
2019-05-02T22:50:23.776Z,82.49
2019-05-02T22:52:54.776Z,82.19
2019-05-02T22:55:25.761Z,81.30
2019-05-02T22:57:56.762Z,81.33
2019-05-02T23:00:28.099Z,81.55
2019-05-02T23:02:59.105Z,80.17
2019-05-02T23:05:32.111Z,82.39
2019-05-02T23:08:02.913Z,81.85
2019-05-02T23:10:34.970Z,81.22
2019-05-02T23:13:06.303Z,81.73
2019-05-02T23:15:37.418Z,81.36
2019-05-02T23:18:08.413Z,81.60
2019-05-02T23:20:39.363Z,80.45
2019-05-02T23:23:12.405Z,81.39
2019-05-02T23:26:07.239Z,82.40
2019-05-02T23:28:40.088Z,81.31
2019-05-02T23:31:14.086Z,80.28
2019-05-02T23:33:59.291Z,80.22
2019-05-02T23:36:32.555Z,80.89
2019-05-02T23:39:05.271Z,80.74
2019-05-02T23:41:36.406Z,80.26
2019-05-02T23:44:07.547Z,80.37
2019-05-02T23:46:38.592Z,79.66
2019-05-02T23:49:09.653Z,80.18
2019-05-02T23:51:42.510Z,80.42
2019-05-02T23:54:13.417Z,79.95
2019-05-02T23:56:44.549Z,79.15
2019-05-02T23:59:15.583Z,79.14
